New Haven, Connecticut
Current Conditions -  °F | °C
As of 11:53 PM on Saturday 25 Oct 2014 (Local Time) from KHVN Reporting Station
Broken Clouds Broken Clouds  
Wind Chill: 17°   Ceiling: 8500
Heat Index: 17°   Visibility: 10mi
Dew Point: 10°   Wind: 6mph
Humidity: 63%   Direction: NA
Pressure: 29.55"   Gusts: NA
Location:  41.31°N, 72.92°W
Report Text: KHVN 260353Z AUTO VRB05KT 10SM BKN085 BKN100 17/10 A2955 RMK AO2 SLP005 T01720100
Loading
Personal Weather Stations






























Interactive Weather Map
Tropical Storm Tracking
New forecast layout! Learn more

10-Day Weather Forecast

Advertisements
Track Severe Weather on mobile